sensor_id;sensor_type;location;lat;lon;timestamp;P1;durP1;ratioP1;P2;durP2;ratioP2
49378;SDS011;35254;47.990;-1.608;2022-10-26T00:00:48;2.72;;;1.30;;
49378;SDS011;35254;47.990;-1.608;2022-10-26T00:03:14;4.63;;;1.13;;
49378;SDS011;35254;47.990;-1.608;2022-10-26T00:05:40;2.75;;;1.30;;
49378;SDS011;35254;47.990;-1.608;2022-10-26T00:08:06;1.83;;;1.20;;
49378;SDS011;35254;47.990;-1.608;2022-10-26T00:10:33;4.13;;;1.52;;
49378;SDS011;35254;47.990;-1.608;2022-10-26T00:12:59;5.00;;;1.23;;
49378;SDS011;35254;47.990;-1.608;2022-10-26T00:15:26;3.22;;;1.30;;
49378;SDS011;35254;47.990;-1.608;2022-10-26T00:17:52;1.65;;;1.13;;
49378;SDS011;35254;47.990;-1.608;2022-10-26T00:20:18;5.10;;;1.40;;
49378;SDS011;35254;47.990;-1.608;2022-10-26T00:22:43;4.00;;;1.73;;
49378;SDS011;35254;47.990;-1.608;2022-10-26T00:25:09;6.22;;;1.27;;
49378;SDS011;35254;47.990;-1.608;2022-10-26T00:27:35;1.80;;;1.15;;
49378;SDS011;35254;47.990;-1.608;2022-10-26T00:30:01;2.47;;;1.20;;
49378;SDS011;35254;47.990;-1.608;2022-10-26T00:32:30;3.43;;;1.43;;
49378;SDS011;35254;47.990;-1.608;2022-10-26T00:34:56;5.43;;;1.40;;
49378;SDS011;35254;47.990;-1.608;2022-10-26T00:37:22;3.25;;;1.40;;
49378;SDS011;35254;47.990;-1.608;2022-10-26T00:39:47;2.60;;;0.93;;
49378;SDS011;35254;47.990;-1.608;2022-10-26T00:42:15;1.98;;;1.02;;
49378;SDS011;35254;47.990;-1.608;2022-10-26T00:47:13;6.80;;;1.30;;
49378;SDS011;35254;47.990;-1.608;2022-10-26T00:49:58;5.25;;;1.38;;
49378;SDS011;35254;47.990;-1.608;2022-10-26T00:52:30;1.73;;;1.13;;
49378;SDS011;35254;47.990;-1.608;2022-10-26T00:54:56;4.25;;;1.40;;
49378;SDS011;35254;47.990;-1.608;2022-10-26T00:57:22;2.20;;;1.42;;
49378;SDS011;35254;47.990;-1.608;2022-10-26T00:59:48;7.75;;;1.60;;
49378;SDS011;35254;47.990;-1.608;2022-10-26T01:02:16;5.63;;;1.10;;
49378;SDS011;35254;47.990;-1.608;2022-10-26T01:04:42;2.40;;;0.88;;
49378;SDS011;35254;47.990;-1.608;2022-10-26T01:07:11;2.85;;;1.42;;
49378;SDS011;35254;47.990;-1.608;2022-10-26T01:09:37;2.50;;;1.27;;
49378;SDS011;35254;47.990;-1.608;2022-10-26T01:12:03;3.45;;;0.95;;
49378;SDS011;35254;47.990;-1.608;2022-10-26T01:14:29;4.95;;;1.30;;
49378;SDS011;35254;47.990;-1.608;2022-10-26T01:23:11;3.40;;;1.02;;
49378;SDS011;35254;47.990;-1.608;2022-10-26T01:31:54;2.90;;;1.00;;
49378;SDS011;35254;47.990;-1.608;2022-10-26T01:34:38;1.27;;;0.80;;
49378;SDS011;35254;47.990;-1.608;2022-10-26T01:37:14;4.53;;;1.27;;
49378;SDS011;35254;47.990;-1.608;2022-10-26T01:39:47;7.93;;;1.30;;
49378;SDS011;35254;47.990;-1.608;2022-10-26T01:42:19;2.72;;;1.15;;
49378;SDS011;35254;47.990;-1.608;2022-10-26T01:44:48;3.38;;;1.58;;
49378;SDS011;35254;47.990;-1.608;2022-10-26T01:47:20;2.97;;;1.17;;
49378;SDS011;35254;47.990;-1.608;2022-10-26T01:49:52;3.17;;;1.13;;
49378;SDS011;35254;47.990;-1.608;2022-10-26T01:52:20;2.35;;;1.00;;
49378;SDS011;35254;47.990;-1.608;2022-10-26T01:54:46;4.20;;;1.00;;
49378;SDS011;35254;47.990;-1.608;2022-10-26T01:57:12;4.32;;;1.25;;
49378;SDS011;35254;47.990;-1.608;2022-10-26T02:13:59;4.18;;;1.27;;
49378;SDS011;35254;47.990;-1.608;2022-10-26T02:16:55;1.92;;;0.82;;
49378;SDS011;35254;47.990;-1.608;2022-10-26T02:24:44;4.05;;;1.45;;
49378;SDS011;35254;47.990;-1.608;2022-10-26T02:27:25;6.18;;;1.25;;
49378;SDS011;35254;47.990;-1.608;2022-10-26T02:29:54;2.10;;;1.00;;
49378;SDS011;35254;47.990;-1.608;2022-10-26T02:32:22;2.83;;;1.20;;
49378;SDS011;35254;47.990;-1.608;2022-10-26T02:34:51;1.55;;;0.73;;
49378;SDS011;35254;47.990;-1.608;2022-10-26T02:37:20;3.70;;;1.20;;
49378;SDS011;35254;47.990;-1.608;2022-10-26T02:39:48;6.55;;;1.30;;
49378;SDS011;35254;47.990;-1.608;2022-10-26T02:42:15;3.38;;;1.17;;
49378;SDS011;35254;47.990;-1.608;2022-10-26T02:44:45;1.83;;;1.05;;
49378;SDS011;35254;47.990;-1.608;2022-10-26T02:47:15;3.63;;;1.00;;
49378;SDS011;35254;47.990;-1.608;2022-10-26T02:49:42;1.45;;;0.70;;
49378;SDS011;35254;47.990;-1.608;2022-10-26T02:52:22;3.05;;;1.00;;
49378;SDS011;35254;47.990;-1.608;2022-10-26T02:55:04;2.25;;;1.00;;
49378;SDS011;35254;47.990;-1.608;2022-10-26T02:57:35;6.97;;;2.63;;
49378;SDS011;35254;47.990;-1.608;2022-10-26T03:00:10;4.78;;;1.35;;
49378;SDS011;35254;47.990;-1.608;2022-10-26T03:02:38;7.60;;;1.35;;
49378;SDS011;35254;47.990;-1.608;2022-10-26T03:05:12;2.50;;;1.20;;
49378;SDS011;35254;47.990;-1.608;2022-10-26T03:07:42;3.15;;;1.00;;
49378;SDS011;35254;47.990;-1.608;2022-10-26T03:10:07;3.97;;;1.13;;
49378;SDS011;35254;47.990;-1.608;2022-10-26T03:12:33;3.75;;;1.00;;
49378;SDS011;35254;47.990;-1.608;2022-10-26T03:14:59;4.63;;;1.60;;
49378;SDS011;35254;47.990;-1.608;2022-10-26T03:17:25;5.63;;;1.35;;
49378;SDS011;35254;47.990;-1.608;2022-10-26T03:19:50;2.38;;;0.80;;
49378;SDS011;35254;47.990;-1.608;2022-10-26T03:22:16;2.83;;;1.25;;
49378;SDS011;35254;47.990;-1.608;2022-10-26T03:24:41;3.63;;;1.08;;
49378;SDS011;35254;47.990;-1.608;2022-10-26T03:27:07;10.60;;;1.70;;
49378;SDS011;35254;47.990;-1.608;2022-10-26T03:29:33;2.65;;;1.10;;
49378;SDS011;35254;47.990;-1.608;2022-10-26T03:31:58;3.38;;;1.30;;
49378;SDS011;35254;47.990;-1.608;2022-10-26T03:34:24;6.60;;;1.48;;
49378;SDS011;35254;47.990;-1.608;2022-10-26T03:36:49;4.15;;;1.23;;
49378;SDS011;35254;47.990;-1.608;2022-10-26T03:39:15;6.10;;;1.45;;
49378;SDS011;35254;47.990;-1.608;2022-10-26T03:41:40;6.65;;;1.58;;
49378;SDS011;35254;47.990;-1.608;2022-10-26T03:44:06;5.70;;;1.35;;
49378;SDS011;35254;47.990;-1.608;2022-10-26T03:46:32;8.00;;;1.23;;
49378;SDS011;35254;47.990;-1.608;2022-10-26T03:48:57;3.50;;;1.25;;
49378;SDS011;35254;47.990;-1.608;2022-10-26T03:51:23;5.82;;;1.27;;
49378;SDS011;35254;47.990;-1.608;2022-10-26T03:53:48;4.32;;;1.40;;
49378;SDS011;35254;47.990;-1.608;2022-10-26T03:56:14;5.15;;;1.65;;
49378;SDS011;35254;47.990;-1.608;2022-10-26T03:58:39;2.38;;;0.93;;
49378;SDS011;35254;47.990;-1.608;2022-10-26T04:01:05;2.22;;;0.80;;
49378;SDS011;35254;47.990;-1.608;2022-10-26T04:03:31;3.63;;;1.20;;
49378;SDS011;35254;47.990;-1.608;2022-10-26T04:05:59;3.83;;;1.33;;
49378;SDS011;35254;47.990;-1.608;2022-10-26T04:08:25;4.13;;;1.10;;
49378;SDS011;35254;47.990;-1.608;2022-10-26T04:10:51;3.88;;;1.27;;
49378;SDS011;35254;47.990;-1.608;2022-10-26T04:13:16;1.85;;;1.00;;
49378;SDS011;35254;47.990;-1.608;2022-10-26T04:15:42;3.03;;;0.82;;
49378;SDS011;35254;47.990;-1.608;2022-10-26T04:18:07;3.10;;;1.00;;
49378;SDS011;35254;47.990;-1.608;2022-10-26T04:20:33;3.42;;;1.35;;
49378;SDS011;35254;47.990;-1.608;2022-10-26T04:23:04;3.78;;;1.17;;
49378;SDS011;35254;47.990;-1.608;2022-10-26T04:27:57;4.82;;;1.15;;
49378;SDS011;35254;47.990;-1.608;2022-10-26T04:30:22;4.88;;;1.30;;
49378;SDS011;35254;47.990;-1.608;2022-10-26T04:32:48;5.18;;;1.30;;
49378;SDS011;35254;47.990;-1.608;2022-10-26T04:35:14;3.97;;;1.05;;
49378;SDS011;35254;47.990;-1.608;2022-10-26T04:37:39;4.60;;;1.70;;
49378;SDS011;35254;47.990;-1.608;2022-10-26T04:40:05;4.88;;;1.40;;
49378;SDS011;35254;47.990;-1.608;2022-10-26T04:42:38;5.03;;;1.35;;
49378;SDS011;35254;47.990;-1.608;2022-10-26T04:45:08;3.13;;;1.40;;
49378;SDS011;35254;47.990;-1.608;2022-10-26T04:47:34;4.72;;;1.33;;
49378;SDS011;35254;47.990;-1.608;2022-10-26T04:50:00;3.40;;;1.10;;
49378;SDS011;35254;47.990;-1.608;2022-10-26T04:52:25;5.57;;;1.45;;
49378;SDS011;35254;47.990;-1.608;2022-10-26T04:54:51;4.70;;;1.45;;
49378;SDS011;35254;47.990;-1.608;2022-10-26T04:57:17;3.67;;;1.17;;
49378;SDS011;35254;47.990;-1.608;2022-10-26T04:59:42;4.20;;;1.05;;
49378;SDS011;35254;47.990;-1.608;2022-10-26T05:02:08;5.47;;;1.38;;
49378;SDS011;35254;47.990;-1.608;2022-10-26T05:04:33;4.15;;;1.30;;
49378;SDS011;35254;47.990;-1.608;2022-10-26T05:06:59;5.00;;;1.88;;
49378;SDS011;35254;47.990;-1.608;2022-10-26T05:09:24;6.13;;;1.63;;
49378;SDS011;35254;47.990;-1.608;2022-10-26T05:11:50;4.38;;;1.30;;
49378;SDS011;35254;47.990;-1.608;2022-10-26T05:14:16;1.75;;;1.08;;
49378;SDS011;35254;47.990;-1.608;2022-10-26T05:16:41;4.18;;;1.75;;
49378;SDS011;35254;47.990;-1.608;2022-10-26T05:19:08;4.72;;;1.40;;
49378;SDS011;35254;47.990;-1.608;2022-10-26T05:21:34;4.78;;;1.30;;
49378;SDS011;35254;47.990;-1.608;2022-10-26T05:24:00;2.83;;;1.10;;
49378;SDS011;35254;47.990;-1.608;2022-10-26T05:26:25;4.10;;;1.27;;
49378;SDS011;35254;47.990;-1.608;2022-10-26T05:28:51;3.92;;;1.02;;
49378;SDS011;35254;47.990;-1.608;2022-10-26T05:31:17;7.25;;;1.95;;
49378;SDS011;35254;47.990;-1.608;2022-10-26T05:33:43;6.20;;;1.30;;
49378;SDS011;35254;47.990;-1.608;2022-10-26T05:36:08;4.47;;;1.30;;
49378;SDS011;35254;47.990;-1.608;2022-10-26T05:38:34;5.28;;;1.70;;
49378;SDS011;35254;47.990;-1.608;2022-10-26T05:41:00;4.03;;;1.40;;
49378;SDS011;35254;47.990;-1.608;2022-10-26T05:43:25;5.13;;;1.48;;
49378;SDS011;35254;47.990;-1.608;2022-10-26T05:45:51;2.13;;;1.15;;
49378;SDS011;35254;47.990;-1.608;2022-10-26T05:48:17;6.93;;;1.58;;
49378;SDS011;35254;47.990;-1.608;2022-10-26T05:50:43;3.33;;;1.63;;
49378;SDS011;35254;47.990;-1.608;2022-10-26T05:53:09;1.65;;;1.00;;
49378;SDS011;35254;47.990;-1.608;2022-10-26T05:55:35;6.63;;;0.93;;
49378;SDS011;35254;47.990;-1.608;2022-10-26T05:58:01;4.93;;;1.60;;
49378;SDS011;35254;47.990;-1.608;2022-10-26T06:00:27;4.63;;;1.30;;
49378;SDS011;35254;47.990;-1.608;2022-10-26T06:03:07;5.85;;;1.70;;
49378;SDS011;35254;47.990;-1.608;2022-10-26T06:05:55;4.70;;;1.42;;
49378;SDS011;35254;47.990;-1.608;2022-10-26T06:08:23;4.22;;;1.20;;
49378;SDS011;35254;47.990;-1.608;2022-10-26T06:10:51;4.78;;;1.45;;
49378;SDS011;35254;47.990;-1.608;2022-10-26T06:13:18;5.45;;;1.25;;
49378;SDS011;35254;47.990;-1.608;2022-10-26T06:15:48;6.43;;;1.50;;
49378;SDS011;35254;47.990;-1.608;2022-10-26T06:24:06;4.03;;;1.38;;
49378;SDS011;35254;47.990;-1.608;2022-10-26T06:31:45;5.65;;;1.92;;
49378;SDS011;35254;47.990;-1.608;2022-10-26T06:34:11;8.93;;;1.90;;
49378;SDS011;35254;47.990;-1.608;2022-10-26T06:36:45;4.20;;;1.50;;
49378;SDS011;35254;47.990;-1.608;2022-10-26T06:39:11;4.45;;;1.50;;
49378;SDS011;35254;47.990;-1.608;2022-10-26T06:41:39;4.47;;;1.48;;
49378;SDS011;35254;47.990;-1.608;2022-10-26T06:44:05;4.97;;;1.30;;
49378;SDS011;35254;47.990;-1.608;2022-10-26T06:52:30;19.08;;;1.80;;
49378;SDS011;35254;47.990;-1.608;2022-10-26T06:57:15;15.63;;;3.03;;
49378;SDS011;35254;47.990;-1.608;2022-10-26T06:59:47;17.55;;;2.35;;
49378;SDS011;35254;47.990;-1.608;2022-10-26T07:02:21;23.67;;;2.88;;
49378;SDS011;35254;47.990;-1.608;2022-10-26T07:04:47;12.35;;;2.75;;
49378;SDS011;35254;47.990;-1.608;2022-10-26T07:07:14;13.48;;;2.45;;
49378;SDS011;35254;47.990;-1.608;2022-10-26T07:09:42;18.27;;;3.25;;
49378;SDS011;35254;47.990;-1.608;2022-10-26T07:12:08;7.07;;;2.33;;
49378;SDS011;35254;47.990;-1.608;2022-10-26T07:14:34;13.38;;;2.10;;
49378;SDS011;35254;47.990;-1.608;2022-10-26T07:16:59;13.98;;;3.25;;
49378;SDS011;35254;47.990;-1.608;2022-10-26T07:19:25;13.50;;;2.88;;
49378;SDS011;35254;47.990;-1.608;2022-10-26T07:21:53;6.97;;;2.50;;
49378;SDS011;35254;47.990;-1.608;2022-10-26T07:24:20;4.70;;;1.67;;
49378;SDS011;35254;47.990;-1.608;2022-10-26T07:26:47;9.25;;;2.65;;
49378;SDS011;35254;47.990;-1.608;2022-10-26T07:29:12;13.20;;;2.85;;
49378;SDS011;35254;47.990;-1.608;2022-10-26T07:31:40;13.23;;;2.17;;
49378;SDS011;35254;47.990;-1.608;2022-10-26T07:34:06;12.18;;;3.05;;
49378;SDS011;35254;47.990;-1.608;2022-10-26T07:36:31;13.52;;;2.80;;
49378;SDS011;35254;47.990;-1.608;2022-10-26T07:38:57;20.73;;;3.78;;
49378;SDS011;35254;47.990;-1.608;2022-10-26T07:41:23;13.32;;;2.95;;
49378;SDS011;35254;47.990;-1.608;2022-10-26T07:43:48;13.02;;;2.70;;
49378;SDS011;35254;47.990;-1.608;2022-10-26T07:46:15;13.05;;;3.35;;
49378;SDS011;35254;47.990;-1.608;2022-10-26T07:48:41;15.45;;;3.63;;
49378;SDS011;35254;47.990;-1.608;2022-10-26T07:51:07;14.27;;;2.88;;
49378;SDS011;35254;47.990;-1.608;2022-10-26T07:53:33;9.27;;;2.33;;
49378;SDS011;35254;47.990;-1.608;2022-10-26T07:55:58;10.07;;;1.90;;
49378;SDS011;35254;47.990;-1.608;2022-10-26T07:58:24;16.05;;;2.38;;
49378;SDS011;35254;47.990;-1.608;2022-10-26T08:00:51;12.35;;;2.58;;
49378;SDS011;35254;47.990;-1.608;2022-10-26T08:03:18;15.73;;;2.67;;
49378;SDS011;35254;47.990;-1.608;2022-10-26T08:05:44;14.13;;;3.22;;
49378;SDS011;35254;47.990;-1.608;2022-10-26T08:08:11;8.77;;;2.50;;
49378;SDS011;35254;47.990;-1.608;2022-10-26T08:10:40;13.68;;;3.30;;
49378;SDS011;35254;47.990;-1.608;2022-10-26T08:13:07;10.35;;;2.08;;
49378;SDS011;35254;47.990;-1.608;2022-10-26T08:15:33;12.38;;;3.05;;
49378;SDS011;35254;47.990;-1.608;2022-10-26T08:17:59;12.05;;;2.83;;
49378;SDS011;35254;47.990;-1.608;2022-10-26T08:20:25;8.18;;;2.13;;
49378;SDS011;35254;47.990;-1.608;2022-10-26T08:22:50;11.05;;;2.63;;
49378;SDS011;35254;47.990;-1.608;2022-10-26T08:25:17;15.23;;;3.05;;
49378;SDS011;35254;47.990;-1.608;2022-10-26T08:27:43;16.60;;;3.63;;
49378;SDS011;35254;47.990;-1.608;2022-10-26T08:30:08;12.75;;;2.97;;
49378;SDS011;35254;47.990;-1.608;2022-10-26T08:32:34;9.45;;;3.88;;
49378;SDS011;35254;47.990;-1.608;2022-10-26T08:35:00;14.70;;;3.20;;
49378;SDS011;35254;47.990;-1.608;2022-10-26T08:37:25;13.93;;;4.60;;
49378;SDS011;35254;47.990;-1.608;2022-10-26T08:39:52;18.73;;;4.13;;
49378;SDS011;35254;47.990;-1.608;2022-10-26T08:42:18;16.83;;;3.95;;
49378;SDS011;35254;47.990;-1.608;2022-10-26T08:44:58;13.27;;;2.85;;
49378;SDS011;35254;47.990;-1.608;2022-10-26T08:47:42;15.48;;;2.75;;
49378;SDS011;35254;47.990;-1.608;2022-10-26T08:50:13;16.80;;;2.78;;
49378;SDS011;35254;47.990;-1.608;2022-10-26T08:52:48;9.93;;;3.15;;
49378;SDS011;35254;47.990;-1.608;2022-10-26T08:55:30;16.42;;;3.30;;
49378;SDS011;35254;47.990;-1.608;2022-10-26T08:58:10;13.68;;;3.25;;
49378;SDS011;35254;47.990;-1.608;2022-10-26T09:00:40;14.68;;;2.80;;
49378;SDS011;35254;47.990;-1.608;2022-10-26T09:03:15;12.05;;;3.15;;
49378;SDS011;35254;47.990;-1.608;2022-10-26T09:08:26;11.27;;;2.90;;
49378;SDS011;35254;47.990;-1.608;2022-10-26T09:19:30;8.50;;;1.98;;
49378;SDS011;35254;47.990;-1.608;2022-10-26T09:24:59;11.57;;;2.33;;
49378;SDS011;35254;47.990;-1.608;2022-10-26T09:27:46;14.25;;;2.90;;
49378;SDS011;35254;47.990;-1.608;2022-10-26T09:30:19;24.33;;;4.28;;
49378;SDS011;35254;47.990;-1.608;2022-10-26T09:32:46;10.98;;;2.85;;
49378;SDS011;35254;47.990;-1.608;2022-10-26T09:35:30;12.40;;;3.10;;
49378;SDS011;35254;47.990;-1.608;2022-10-26T09:38:13;13.88;;;2.55;;
49378;SDS011;35254;47.990;-1.608;2022-10-26T09:45:57;7.72;;;2.22;;
49378;SDS011;35254;47.990;-1.608;2022-10-26T09:48:38;12.60;;;2.47;;
49378;SDS011;35254;47.990;-1.608;2022-10-26T09:51:09;8.77;;;2.15;;
49378;SDS011;35254;47.990;-1.608;2022-10-26T09:53:35;11.18;;;2.88;;
49378;SDS011;35254;47.990;-1.608;2022-10-26T09:56:07;15.77;;;3.38;;
49378;SDS011;35254;47.990;-1.608;2022-10-26T09:58:36;10.65;;;1.95;;
49378;SDS011;35254;47.990;-1.608;2022-10-26T10:01:06;8.27;;;2.30;;
49378;SDS011;35254;47.990;-1.608;2022-10-26T10:06:37;6.40;;;1.85;;
49378;SDS011;35254;47.990;-1.608;2022-10-26T10:09:08;9.80;;;2.08;;
49378;SDS011;35254;47.990;-1.608;2022-10-26T10:19:28;9.50;;;2.25;;
49378;SDS011;35254;47.990;-1.608;2022-10-26T10:21:58;10.60;;;1.75;;
49378;SDS011;35254;47.990;-1.608;2022-10-26T10:24:35;8.82;;;2.05;;
49378;SDS011;35254;47.990;-1.608;2022-10-26T10:27:11;6.68;;;1.98;;
49378;SDS011;35254;47.990;-1.608;2022-10-26T10:29:51;7.47;;;1.90;;
49378;SDS011;35254;47.990;-1.608;2022-10-26T10:37:21;7.15;;;1.70;;
49378;SDS011;35254;47.990;-1.608;2022-10-26T10:40:03;7.75;;;1.70;;
49378;SDS011;35254;47.990;-1.608;2022-10-26T10:42:33;5.90;;;1.58;;
49378;SDS011;35254;47.990;-1.608;2022-10-26T10:45:03;7.43;;;1.38;;
49378;SDS011;35254;47.990;-1.608;2022-10-26T10:47:31;5.60;;;1.55;;
49378;SDS011;35254;47.990;-1.608;2022-10-26T10:50:15;9.82;;;1.90;;
49378;SDS011;35254;47.990;-1.608;2022-10-26T10:52:43;5.18;;;2.00;;
49378;SDS011;35254;47.990;-1.608;2022-10-26T10:57:50;3.92;;;1.33;;
49378;SDS011;35254;47.990;-1.608;2022-10-26T11:00:22;2.85;;;1.20;;
49378;SDS011;35254;47.990;-1.608;2022-10-26T11:02:53;3.67;;;1.50;;
49378;SDS011;35254;47.990;-1.608;2022-10-26T11:05:58;4.43;;;1.17;;
49378;SDS011;35254;47.990;-1.608;2022-10-26T11:08:30;9.43;;;1.50;;
49378;SDS011;35254;47.990;-1.608;2022-10-26T11:14:07;6.53;;;1.40;;
49378;SDS011;35254;47.990;-1.608;2022-10-26T11:16:39;1.90;;;1.05;;
49378;SDS011;35254;47.990;-1.608;2022-10-26T11:19:24;3.65;;;1.48;;
49378;SDS011;35254;47.990;-1.608;2022-10-26T11:22:10;4.78;;;1.60;;
49378;SDS011;35254;47.990;-1.608;2022-10-26T11:24:43;5.03;;;1.55;;
49378;SDS011;35254;47.990;-1.608;2022-10-26T11:27:19;1.80;;;1.42;;
49378;SDS011;35254;47.990;-1.608;2022-10-26T11:30:08;4.97;;;1.70;;
49378;SDS011;35254;47.990;-1.608;2022-10-26T11:32:52;4.22;;;1.10;;
49378;SDS011;35254;47.990;-1.608;2022-10-26T11:38:20;1.67;;;0.90;;
49378;SDS011;35254;47.990;-1.608;2022-10-26T11:41:28;2.88;;;1.00;;
49378;SDS011;35254;47.990;-1.608;2022-10-26T11:46:57;5.63;;;1.40;;
49378;SDS011;35254;47.990;-1.608;2022-10-26T11:54:34;5.95;;;0.88;;
49378;SDS011;35254;47.990;-1.608;2022-10-26T11:57:08;3.80;;;1.10;;
49378;SDS011;35254;47.990;-1.608;2022-10-26T11:59:36;4.78;;;1.27;;
49378;SDS011;35254;47.990;-1.608;2022-10-26T12:02:14;2.90;;;1.15;;
49378;SDS011;35254;47.990;-1.608;2022-10-26T12:04:49;5.20;;;1.23;;
49378;SDS011;35254;47.990;-1.608;2022-10-26T12:07:30;7.35;;;1.65;;
49378;SDS011;35254;47.990;-1.608;2022-10-26T12:09:57;3.65;;;1.30;;
49378;SDS011;35254;47.990;-1.608;2022-10-26T12:17:54;4.03;;;0.95;;
49378;SDS011;35254;47.990;-1.608;2022-10-26T12:23:20;1.98;;;0.90;;
49378;SDS011;35254;47.990;-1.608;2022-10-26T12:25:47;6.20;;;1.15;;
49378;SDS011;35254;47.990;-1.608;2022-10-26T12:28:58;3.60;;;1.00;;
49378;SDS011;35254;47.990;-1.608;2022-10-26T12:34:09;3.63;;;0.73;;
49378;SDS011;35254;47.990;-1.608;2022-10-26T12:36:50;4.80;;;1.23;;
49378;SDS011;35254;47.990;-1.608;2022-10-26T12:39:42;2.38;;;0.73;;
49378;SDS011;35254;47.990;-1.608;2022-10-26T12:45:19;3.75;;;0.95;;
49378;SDS011;35254;47.990;-1.608;2022-10-26T12:57:48;3.95;;;1.10;;
49378;SDS011;35254;47.990;-1.608;2022-10-26T13:00:38;2.63;;;0.88;;
49378;SDS011;35254;47.990;-1.608;2022-10-26T13:03:19;2.58;;;0.65;;
49378;SDS011;35254;47.990;-1.608;2022-10-26T13:08:58;2.67;;;0.85;;
49378;SDS011;35254;47.990;-1.608;2022-10-26T13:11:32;2.00;;;0.70;;
49378;SDS011;35254;47.990;-1.608;2022-10-26T13:14:04;3.53;;;0.82;;
49378;SDS011;35254;47.990;-1.608;2022-10-26T13:16:33;4.43;;;1.10;;
49378;SDS011;35254;47.990;-1.608;2022-10-26T13:18:59;3.15;;;0.95;;
49378;SDS011;35254;47.990;-1.608;2022-10-26T13:21:25;1.67;;;0.73;;
49378;SDS011;35254;47.990;-1.608;2022-10-26T13:26:18;2.10;;;0.88;;
49378;SDS011;35254;47.990;-1.608;2022-10-26T13:28:49;2.20;;;0.93;;
49378;SDS011;35254;47.990;-1.608;2022-10-26T13:33:49;1.83;;;0.73;;
49378;SDS011;35254;47.990;-1.608;2022-10-26T13:36:25;0.60;;;0.50;;
49378;SDS011;35254;47.990;-1.608;2022-10-26T13:38:51;3.92;;;1.10;;
49378;SDS011;35254;47.990;-1.608;2022-10-26T13:41:20;2.55;;;0.95;;
49378;SDS011;35254;47.990;-1.608;2022-10-26T13:43:56;2.45;;;0.90;;
49378;SDS011;35254;47.990;-1.608;2022-10-26T13:46:25;3.75;;;1.08;;
49378;SDS011;35254;47.990;-1.608;2022-10-26T13:48:53;2.88;;;0.90;;
49378;SDS011;35254;47.990;-1.608;2022-10-26T13:51:25;2.65;;;1.00;;
49378;SDS011;35254;47.990;-1.608;2022-10-26T13:56:41;1.88;;;0.63;;
49378;SDS011;35254;47.990;-1.608;2022-10-26T13:59:12;3.10;;;1.02;;
49378;SDS011;35254;47.990;-1.608;2022-10-26T14:01:40;2.42;;;0.75;;
49378;SDS011;35254;47.990;-1.608;2022-10-26T14:04:15;7.00;;;1.17;;
49378;SDS011;35254;47.990;-1.608;2022-10-26T14:06:48;2.80;;;1.00;;
49378;SDS011;35254;47.990;-1.608;2022-10-26T14:09:15;3.80;;;1.00;;
49378;SDS011;35254;47.990;-1.608;2022-10-26T14:14:13;6.07;;;1.20;;
49378;SDS011;35254;47.990;-1.608;2022-10-26T14:16:45;1.52;;;0.90;;
49378;SDS011;35254;47.990;-1.608;2022-10-26T14:19:53;5.82;;;1.10;;
49378;SDS011;35254;47.990;-1.608;2022-10-26T14:22:01;3.75;;;0.98;;
49378;SDS011;35254;47.990;-1.608;2022-10-26T14:24:32;5.22;;;1.30;;
49378;SDS011;35254;47.990;-1.608;2022-10-26T14:27:01;4.28;;;1.38;;
49378;SDS011;35254;47.990;-1.608;2022-10-26T14:29:30;4.22;;;0.82;;
49378;SDS011;35254;47.990;-1.608;2022-10-26T14:31:57;7.40;;;1.15;;
49378;SDS011;35254;47.990;-1.608;2022-10-26T14:34:22;5.38;;;0.90;;
49378;SDS011;35254;47.990;-1.608;2022-10-26T14:36:55;3.60;;;0.98;;
49378;SDS011;35254;47.990;-1.608;2022-10-26T14:41:55;4.63;;;1.30;;
49378;SDS011;35254;47.990;-1.608;2022-10-26T14:44:23;5.10;;;1.00;;
49378;SDS011;35254;47.990;-1.608;2022-10-26T14:46:49;3.17;;;0.90;;
49378;SDS011;35254;47.990;-1.608;2022-10-26T14:49:22;2.30;;;1.00;;
49378;SDS011;35254;47.990;-1.608;2022-10-26T14:51:59;3.25;;;1.05;;
49378;SDS011;35254;47.990;-1.608;2022-10-26T14:54:29;5.05;;;1.40;;
49378;SDS011;35254;47.990;-1.608;2022-10-26T14:56:56;3.33;;;0.82;;
49378;SDS011;35254;47.990;-1.608;2022-10-26T14:59:26;6.93;;;1.45;;
49378;SDS011;35254;47.990;-1.608;2022-10-26T15:01:54;2.53;;;0.90;;
49378;SDS011;35254;47.990;-1.608;2022-10-26T15:04:25;3.35;;;1.15;;
49378;SDS011;35254;47.990;-1.608;2022-10-26T15:06:51;4.93;;;1.20;;
49378;SDS011;35254;47.990;-1.608;2022-10-26T15:14:52;2.20;;;0.85;;
49378;SDS011;35254;47.990;-1.608;2022-10-26T15:17:20;6.22;;;1.42;;
49378;SDS011;35254;47.990;-1.608;2022-10-26T15:19:56;2.67;;;0.85;;
49378;SDS011;35254;47.990;-1.608;2022-10-26T15:22:29;3.60;;;0.90;;
49378;SDS011;35254;47.990;-1.608;2022-10-26T15:24:55;6.45;;;1.60;;
49378;SDS011;35254;47.990;-1.608;2022-10-26T15:27:23;6.47;;;0.90;;
49378;SDS011;35254;47.990;-1.608;2022-10-26T15:29:50;6.40;;;1.30;;
49378;SDS011;35254;47.990;-1.608;2022-10-26T15:32:31;8.85;;;1.60;;
49378;SDS011;35254;47.990;-1.608;2022-10-26T15:35:20;9.45;;;1.50;;
49378;SDS011;35254;47.990;-1.608;2022-10-26T15:37:43;4.75;;;1.52;;
49378;SDS011;35254;47.990;-1.608;2022-10-26T15:40:10;3.78;;;1.05;;
49378;SDS011;35254;47.990;-1.608;2022-10-26T15:42:37;7.90;;;1.73;;
49378;SDS011;35254;47.990;-1.608;2022-10-26T15:45:12;3.97;;;1.25;;
49378;SDS011;35254;47.990;-1.608;2022-10-26T15:47:38;5.95;;;1.25;;
49378;SDS011;35254;47.990;-1.608;2022-10-26T15:50:04;5.05;;;1.13;;
49378;SDS011;35254;47.990;-1.608;2022-10-26T15:52:30;7.15;;;1.08;;
49378;SDS011;35254;47.990;-1.608;2022-10-26T15:54:56;7.75;;;1.55;;
49378;SDS011;35254;47.990;-1.608;2022-10-26T15:57:22;9.00;;;2.15;;
49378;SDS011;35254;47.990;-1.608;2022-10-26T15:59:49;3.72;;;1.00;;
49378;SDS011;35254;47.990;-1.608;2022-10-26T16:02:15;4.22;;;1.35;;
49378;SDS011;35254;47.990;-1.608;2022-10-26T16:04:41;6.68;;;2.10;;
49378;SDS011;35254;47.990;-1.608;2022-10-26T16:07:10;4.95;;;1.40;;
49378;SDS011;35254;47.990;-1.608;2022-10-26T16:09:38;3.55;;;0.93;;
49378;SDS011;35254;47.990;-1.608;2022-10-26T16:12:07;6.82;;;1.42;;
49378;SDS011;35254;47.990;-1.608;2022-10-26T16:14:35;2.10;;;0.90;;
49378;SDS011;35254;47.990;-1.608;2022-10-26T16:17:01;3.00;;;1.45;;
49378;SDS011;35254;47.990;-1.608;2022-10-26T16:19:29;5.95;;;0.93;;
49378;SDS011;35254;47.990;-1.608;2022-10-26T16:21:54;4.18;;;1.08;;
49378;SDS011;35254;47.990;-1.608;2022-10-26T16:24:20;2.83;;;0.90;;
49378;SDS011;35254;47.990;-1.608;2022-10-26T16:26:46;9.13;;;1.42;;
49378;SDS011;35254;47.990;-1.608;2022-10-26T16:29:11;2.67;;;1.05;;
49378;SDS011;35254;47.990;-1.608;2022-10-26T16:31:37;5.75;;;1.50;;
49378;SDS011;35254;47.990;-1.608;2022-10-26T16:34:03;2.80;;;1.10;;
49378;SDS011;35254;47.990;-1.608;2022-10-26T16:36:28;7.00;;;1.17;;
49378;SDS011;35254;47.990;-1.608;2022-10-26T16:38:56;8.82;;;1.45;;
49378;SDS011;35254;47.990;-1.608;2022-10-26T16:41:22;5.03;;;0.90;;
49378;SDS011;35254;47.990;-1.608;2022-10-26T16:43:47;4.63;;;1.38;;
49378;SDS011;35254;47.990;-1.608;2022-10-26T16:46:18;3.65;;;0.98;;
49378;SDS011;35254;47.990;-1.608;2022-10-26T16:48:45;4.35;;;1.00;;
49378;SDS011;35254;47.990;-1.608;2022-10-26T16:51:15;2.42;;;0.88;;
49378;SDS011;35254;47.990;-1.608;2022-10-26T16:53:45;3.42;;;0.85;;
49378;SDS011;35254;47.990;-1.608;2022-10-26T16:56:12;3.65;;;1.50;;
49378;SDS011;35254;47.990;-1.608;2022-10-26T16:58:43;3.47;;;1.27;;
49378;SDS011;35254;47.990;-1.608;2022-10-26T17:01:09;4.05;;;1.00;;
49378;SDS011;35254;47.990;-1.608;2022-10-26T17:03:37;5.07;;;1.15;;
49378;SDS011;35254;47.990;-1.608;2022-10-26T17:06:04;2.78;;;0.98;;
49378;SDS011;35254;47.990;-1.608;2022-10-26T17:08:31;2.60;;;0.90;;
49378;SDS011;35254;47.990;-1.608;2022-10-26T17:11:05;3.05;;;1.38;;
49378;SDS011;35254;47.990;-1.608;2022-10-26T17:13:33;3.92;;;0.73;;
49378;SDS011;35254;47.990;-1.608;2022-10-26T17:16:03;8.47;;;1.40;;
49378;SDS011;35254;47.990;-1.608;2022-10-26T17:18:34;5.10;;;1.23;;
49378;SDS011;35254;47.990;-1.608;2022-10-26T17:21:00;4.25;;;0.90;;